N146C KMYF-KRHV
Flight info
| Callsign | N146C |
|---|---|
| Flight time | 1h 46m |
| Altitude | 16000 |
| Route | MZB V23 LAX V299 VTU V25 RZS GVO PRB GILRO |
| Aircraft | B58T/L-SDFGRY/C |
Departure
| Time | 2026-04-18 04:07 |
|---|---|
| Airport | Montgomery-Gibbs Executive Airport (KMYF) |
Arrival
| Time | 2026-04-18 05:53 |
|---|---|
| Airport | Reid-Hillview Airport of Santa Clara County (KRHV) |
| Time | Latitude | Longitude | Altitude | Speed | Heading |
|---|---|---|---|---|---|
| 2026-04-18 03:23 | 32.81359 | -117.14081 | 424 ft | 0 kts | 207° |
| 2026-04-18 03:49 | 32.81353 | -117.14082 | 424 ft | 1 kts | 177° |
| 2026-04-18 03:50 | 32.81340 | -117.14074 | 421 ft | 3 kts | 130° |
| 2026-04-18 03:50 | 32.81333 | -117.14055 | 424 ft | 0 kts | 112° |
| 2026-04-18 03:54 | 32.81329 | -117.14045 | 423 ft | 4 kts | 115° |
| 2026-04-18 03:54 | 32.81313 | -117.13999 | 415 ft | 7 kts | 100° |
| 2026-04-18 03:55 | 32.81341 | -117.13959 | 424 ft | 7 kts | 28° |
| 2026-04-18 03:55 | 32.81370 | -117.13913 | 423 ft | 9 kts | 112° |
| 2026-04-18 03:55 | 32.81361 | -117.13888 | 419 ft | 0 kts | 115° |
| 2026-04-18 03:56 | 32.81355 | -117.13873 | 421 ft | 5 kts | 115° |
| 2026-04-18 03:56 | 32.81329 | -117.13809 | 421 ft | 12 kts | 114° |
| 2026-04-18 03:56 | 32.81291 | -117.13711 | 421 ft | 14 kts | 116° |
| 2026-04-18 03:56 | 32.81248 | -117.13606 | 422 ft | 14 kts | 115° |
| 2026-04-18 03:57 | 32.81148 | -117.13367 | 423 ft | 18 kts | 120° |
| 2026-04-18 03:57 | 32.81117 | -117.13273 | 424 ft | 9 kts | 70° |
| 2026-04-18 03:57 | 32.81160 | -117.13191 | 422 ft | 14 kts | 59° |
| 2026-04-18 03:58 | 32.81181 | -117.13129 | 419 ft | 2 kts | 55° |
| 2026-04-18 03:58 | 32.81187 | -117.13124 | 419 ft | 0 kts | 21° |
| 2026-04-18 04:03 | 32.81200 | -117.13129 | 423 ft | 6 kts | 320° |
| 2026-04-18 04:04 | 32.81205 | -117.13134 | 423 ft | 0 kts | 325° |
| 2026-04-18 04:05 | 32.81230 | -117.13132 | 424 ft | 8 kts | 23° |
| 2026-04-18 04:06 | 32.81291 | -117.13130 | 424 ft | 9 kts | 302° |
| 2026-04-18 04:06 | 32.81334 | -117.13242 | 421 ft | 20 kts | 294° |
| 2026-04-18 04:06 | 32.81420 | -117.13460 | 421 ft | 52 kts | 296° |
| 2026-04-18 04:06 | 32.81690 | -117.14143 | 494 ft | 119 kts | 295° |
| 2026-04-18 04:07 | 32.82044 | -117.15033 | 1138 ft | 118 kts | 292° |
| 2026-04-18 04:07 | 32.82282 | -117.16013 | 1681 ft | 129 kts | 282° |
| 2026-04-18 04:07 | 32.82451 | -117.17076 | 2268 ft | 133 kts | 283° |
| 2026-04-18 04:07 | 32.82575 | -117.17801 | 2624 ft | 136 kts | 283° |
| 2026-04-18 04:08 | 32.82927 | -117.18844 | 3132 ft | 140 kts | 306° |
| 2026-04-18 04:08 | 32.83509 | -117.19799 | 3615 ft | 145 kts | 308° |
| 2026-04-18 04:08 | 32.84138 | -117.20771 | 4028 ft | 156 kts | 309° |
| 2026-04-18 04:08 | 32.84873 | -117.21866 | 4078 ft | 179 kts | 310° |
| 2026-04-18 04:09 | 32.85647 | -117.23015 | 4429 ft | 176 kts | 310° |
| 2026-04-18 04:09 | 32.86412 | -117.24152 | 4812 ft | 175 kts | 310° |
| 2026-04-18 04:09 | 32.87167 | -117.25266 | 5172 ft | 175 kts | 310° |
| 2026-04-18 04:09 | 32.88140 | -117.26077 | 5532 ft | 174 kts | 347° |
| 2026-04-18 04:10 | 32.89324 | -117.26323 | 5904 ft | 171 kts | 347° |
| 2026-04-18 04:10 | 32.90439 | -117.26759 | 6273 ft | 165 kts | 340° |
| 2026-04-18 04:10 | 32.91500 | -117.27232 | 6623 ft | 161 kts | 340° |
| 2026-04-18 04:10 | 32.92536 | -117.27695 | 6967 ft | 157 kts | 340° |
| 2026-04-18 04:11 | 32.93555 | -117.28148 | 7317 ft | 155 kts | 340° |
| 2026-04-18 04:11 | 32.94559 | -117.28595 | 7673 ft | 153 kts | 340° |
| 2026-04-18 04:11 | 32.95548 | -117.29035 | 8030 ft | 151 kts | 340° |
| 2026-04-18 04:11 | 32.96515 | -117.29466 | 8394 ft | 150 kts | 339° |
| 2026-04-18 04:12 | 32.97488 | -117.29899 | 8766 ft | 149 kts | 339° |
| 2026-04-18 04:12 | 32.98457 | -117.30330 | 9142 ft | 148 kts | 339° |
| 2026-04-18 04:12 | 32.99420 | -117.30760 | 9520 ft | 147 kts | 339° |
| 2026-04-18 04:12 | 33.00381 | -117.31188 | 9904 ft | 147 kts | 339° |
| 2026-04-18 04:13 | 33.01351 | -117.31620 | 10209 ft | 150 kts | 339° |
| 2026-04-18 04:13 | 33.02337 | -117.32059 | 10493 ft | 153 kts | 339° |
| 2026-04-18 04:13 | 33.03341 | -117.32507 | 10779 ft | 155 kts | 339° |
| 2026-04-18 04:13 | 33.04361 | -117.32962 | 11068 ft | 157 kts | 338° |
| 2026-04-18 04:14 | 33.05392 | -117.33422 | 11362 ft | 159 kts | 338° |
| 2026-04-18 04:14 | 33.06430 | -117.33885 | 11656 ft | 160 kts | 338° |
| 2026-04-18 04:14 | 33.07460 | -117.34350 | 11953 ft | 161 kts | 338° |
| 2026-04-18 04:14 | 33.08512 | -117.34819 | 12252 ft | 162 kts | 338° |
| 2026-04-18 04:15 | 33.09578 | -117.35293 | 12514 ft | 165 kts | 338° |
| 2026-04-18 04:15 | 33.10663 | -117.35777 | 12772 ft | 167 kts | 338° |
| 2026-04-18 04:15 | 33.11762 | -117.36265 | 13032 ft | 169 kts | 338° |
| 2026-04-18 04:15 | 33.12868 | -117.36757 | 13292 ft | 170 kts | 338° |
| 2026-04-18 04:16 | 33.13981 | -117.37256 | 13553 ft | 171 kts | 338° |
| 2026-04-18 04:16 | 33.15101 | -117.37758 | 13814 ft | 172 kts | 338° |
| 2026-04-18 04:16 | 33.16231 | -117.38265 | 14050 ft | 173 kts | 338° |
| 2026-04-18 04:16 | 33.17345 | -117.38766 | 14280 ft | 174 kts | 338° |
| 2026-04-18 04:17 | 33.18479 | -117.39273 | 14514 ft | 174 kts | 338° |
| 2026-04-18 04:17 | 33.19618 | -117.39782 | 14750 ft | 175 kts | 338° |
| 2026-04-18 04:17 | 33.20765 | -117.40295 | 14988 ft | 175 kts | 338° |
| 2026-04-18 04:17 | 33.21908 | -117.40807 | 15226 ft | 176 kts | 338° |
| 2026-04-18 04:18 | 33.23059 | -117.41322 | 15467 ft | 176 kts | 338° |
| 2026-04-18 04:18 | 33.24159 | -117.41923 | 15704 ft | 176 kts | 323° |
| 2026-04-18 04:18 | 33.25044 | -117.42925 | 15953 ft | 176 kts | 315° |
| 2026-04-18 04:18 | 33.25944 | -117.43966 | 16029 ft | 186 kts | 316° |
| 2026-04-18 04:19 | 33.26900 | -117.45071 | 16037 ft | 195 kts | 315° |
| 2026-04-18 04:19 | 33.27887 | -117.46220 | 16038 ft | 201 kts | 315° |
| 2026-04-18 04:19 | 33.28899 | -117.47399 | 16041 ft | 205 kts | 315° |
| 2026-04-18 04:19 | 33.29930 | -117.48601 | 16035 ft | 208 kts | 315° |
| 2026-04-18 04:20 | 33.30968 | -117.49811 | 16035 ft | 209 kts | 315° |
| 2026-04-18 04:20 | 33.32015 | -117.51031 | 16032 ft | 210 kts | 315° |
| 2026-04-18 04:20 | 33.33064 | -117.52256 | 16030 ft | 211 kts | 315° |
| 2026-04-18 04:20 | 33.34105 | -117.53470 | 16031 ft | 211 kts | 315° |
| 2026-04-18 04:21 | 33.35159 | -117.54700 | 16030 ft | 212 kts | 315° |
| 2026-04-18 04:21 | 33.36215 | -117.55933 | 16030 ft | 212 kts | 315° |
| 2026-04-18 04:21 | 33.37269 | -117.57167 | 16027 ft | 212 kts | 315° |
| 2026-04-18 04:21 | 33.38333 | -117.58410 | 16025 ft | 215 kts | 315° |
| 2026-04-18 04:22 | 33.39413 | -117.59671 | 16026 ft | 219 kts | 315° |
| 2026-04-18 04:22 | 33.40513 | -117.60955 | 16025 ft | 222 kts | 315° |
| 2026-04-18 04:22 | 33.41616 | -117.62246 | 16023 ft | 222 kts | 315° |
| 2026-04-18 04:22 | 33.42720 | -117.63537 | 16021 ft | 222 kts | 315° |
| 2026-04-18 04:23 | 33.43823 | -117.64829 | 16021 ft | 222 kts | 315° |
| 2026-04-18 04:23 | 33.44916 | -117.66109 | 16011 ft | 222 kts | 315° |
| 2026-04-18 04:23 | 33.46020 | -117.67403 | 16011 ft | 222 kts | 315° |
| 2026-04-18 04:23 | 33.47123 | -117.68694 | 16011 ft | 222 kts | 315° |
| 2026-04-18 04:24 | 33.48228 | -117.69991 | 16007 ft | 222 kts | 315° |
| 2026-04-18 04:24 | 33.49332 | -117.71285 | 16007 ft | 222 kts | 315° |
| 2026-04-18 04:24 | 33.50423 | -117.72566 | 16006 ft | 222 kts | 315° |
| 2026-04-18 04:24 | 33.51528 | -117.73862 | 16007 ft | 222 kts | 315° |
| 2026-04-18 04:25 | 33.52630 | -117.75157 | 16007 ft | 222 kts | 315° |
| 2026-04-18 04:25 | 33.53734 | -117.76454 | 16008 ft | 223 kts | 315° |
| 2026-04-18 04:25 | 33.54844 | -117.77757 | 16008 ft | 223 kts | 315° |
| 2026-04-18 04:25 | 33.55952 | -117.79060 | 16008 ft | 223 kts | 315° |
| 2026-04-18 04:26 | 33.57062 | -117.80366 | 16008 ft | 223 kts | 315° |
| 2026-04-18 04:26 | 33.58171 | -117.81668 | 16009 ft | 223 kts | 315° |
| 2026-04-18 04:26 | 33.59278 | -117.82972 | 16009 ft | 223 kts | 315° |
| 2026-04-18 04:26 | 33.60387 | -117.84277 | 16009 ft | 223 kts | 315° |
| 2026-04-18 04:27 | 33.61492 | -117.85581 | 16009 ft | 223 kts | 315° |
| 2026-04-18 04:27 | 33.62600 | -117.86886 | 16009 ft | 223 kts | 315° |
| 2026-04-18 04:27 | 33.63708 | -117.88192 | 16009 ft | 223 kts | 315° |
| 2026-04-18 04:27 | 33.64818 | -117.89500 | 16009 ft | 223 kts | 315° |
| 2026-04-18 04:28 | 33.65910 | -117.90789 | 16006 ft | 223 kts | 315° |
| 2026-04-18 04:28 | 33.67019 | -117.92098 | 16007 ft | 223 kts | 315° |
| 2026-04-18 04:28 | 33.68128 | -117.93406 | 16007 ft | 223 kts | 315° |
| 2026-04-18 04:28 | 33.69233 | -117.94712 | 16007 ft | 223 kts | 315° |
| 2026-04-18 04:29 | 33.70338 | -117.96017 | 16007 ft | 223 kts | 315° |
| 2026-04-18 04:29 | 33.71443 | -117.97323 | 16006 ft | 223 kts | 315° |
| 2026-04-18 04:29 | 33.72552 | -117.98634 | 16006 ft | 223 kts | 315° |
| 2026-04-18 04:29 | 33.73656 | -117.99939 | 16005 ft | 223 kts | 315° |
| 2026-04-18 04:30 | 33.74747 | -118.01231 | 16004 ft | 223 kts | 315° |
| 2026-04-18 04:30 | 33.75853 | -118.02539 | 15970 ft | 223 kts | 315° |
| 2026-04-18 04:30 | 33.76956 | -118.03845 | 15970 ft | 223 kts | 315° |
| 2026-04-18 04:30 | 33.78019 | -118.05194 | 15963 ft | 222 kts | 306° |
| 2026-04-18 04:31 | 33.78691 | -118.06857 | 15967 ft | 222 kts | 288° |
| 2026-04-18 04:31 | 33.79136 | -118.08638 | 15965 ft | 222 kts | 287° |
| 2026-04-18 04:31 | 33.79591 | -118.10420 | 15966 ft | 222 kts | 288° |
| 2026-04-18 04:31 | 33.80046 | -118.12200 | 15967 ft | 222 kts | 287° |
| 2026-04-18 04:32 | 33.80492 | -118.13955 | 15995 ft | 223 kts | 287° |
| 2026-04-18 04:32 | 33.80950 | -118.15755 | 15995 ft | 223 kts | 287° |
| 2026-04-18 04:32 | 33.81398 | -118.17517 | 15995 ft | 223 kts | 287° |
| 2026-04-18 04:32 | 33.81851 | -118.19299 | 16000 ft | 223 kts | 287° |
| 2026-04-18 04:33 | 33.82307 | -118.21087 | 15999 ft | 223 kts | 287° |
| 2026-04-18 04:33 | 33.82759 | -118.22867 | 16018 ft | 223 kts | 287° |
| 2026-04-18 04:33 | 33.83209 | -118.24650 | 16019 ft | 223 kts | 287° |
| 2026-04-18 04:33 | 33.83659 | -118.26436 | 16010 ft | 223 kts | 287° |
| 2026-04-18 04:34 | 33.84111 | -118.28222 | 16010 ft | 223 kts | 287° |
| 2026-04-18 04:34 | 33.84566 | -118.30013 | 16011 ft | 223 kts | 287° |
| 2026-04-18 04:34 | 33.85019 | -118.31804 | 16011 ft | 223 kts | 287° |
| 2026-04-18 04:34 | 33.85465 | -118.33569 | 16011 ft | 223 kts | 287° |
| 2026-04-18 04:35 | 33.86092 | -118.35273 | 16008 ft | 223 kts | 304° |
| 2026-04-18 04:35 | 33.87155 | -118.36640 | 16019 ft | 223 kts | 318° |
| 2026-04-18 04:35 | 33.88328 | -118.37875 | 16015 ft | 224 kts | 317° |
| 2026-04-18 04:35 | 33.89480 | -118.39104 | 16016 ft | 224 kts | 317° |
| 2026-04-18 04:36 | 33.90644 | -118.40349 | 16017 ft | 224 kts | 317° |
| 2026-04-18 04:36 | 33.91810 | -118.41593 | 16018 ft | 224 kts | 317° |
| 2026-04-18 04:36 | 33.92956 | -118.42879 | 16015 ft | 223 kts | 310° |
| 2026-04-18 04:36 | 33.93735 | -118.44486 | 16015 ft | 223 kts | 291° |
| 2026-04-18 04:37 | 33.94279 | -118.46216 | 16015 ft | 223 kts | 291° |
| 2026-04-18 04:37 | 33.94838 | -118.47967 | 16016 ft | 224 kts | 291° |
| 2026-04-18 04:37 | 33.95398 | -118.49714 | 16017 ft | 224 kts | 291° |
| 2026-04-18 04:37 | 33.95957 | -118.51465 | 16017 ft | 223 kts | 291° |
| 2026-04-18 04:38 | 33.96513 | -118.53209 | 16026 ft | 223 kts | 291° |
| 2026-04-18 04:38 | 33.97071 | -118.54960 | 16026 ft | 224 kts | 291° |
| 2026-04-18 04:38 | 33.97628 | -118.56710 | 16026 ft | 224 kts | 291° |
| 2026-04-18 04:38 | 33.98186 | -118.58460 | 16026 ft | 224 kts | 291° |
| 2026-04-18 04:39 | 33.98745 | -118.60216 | 16027 ft | 224 kts | 291° |
| 2026-04-18 04:39 | 33.99296 | -118.61949 | 16026 ft | 224 kts | 291° |
| 2026-04-18 04:39 | 33.99854 | -118.63702 | 16026 ft | 224 kts | 291° |
| 2026-04-18 04:39 | 34.00412 | -118.65461 | 16026 ft | 224 kts | 291° |
| 2026-04-18 04:40 | 34.00971 | -118.67220 | 16028 ft | 224 kts | 291° |
| 2026-04-18 04:40 | 34.01527 | -118.68974 | 16029 ft | 224 kts | 291° |
| 2026-04-18 04:40 | 34.02085 | -118.70727 | 16030 ft | 223 kts | 291° |
| 2026-04-18 04:40 | 34.02641 | -118.72471 | 16030 ft | 223 kts | 291° |
| 2026-04-18 04:41 | 34.03186 | -118.74200 | 16028 ft | 223 kts | 291° |
| 2026-04-18 04:41 | 34.03738 | -118.75962 | 16027 ft | 223 kts | 291° |
| 2026-04-18 04:41 | 34.04227 | -118.77733 | 16020 ft | 222 kts | 288° |
| 2026-04-18 04:41 | 34.04706 | -118.79505 | 16032 ft | 223 kts | 288° |
| 2026-04-18 04:42 | 34.05187 | -118.81264 | 16033 ft | 224 kts | 288° |
| 2026-04-18 04:42 | 34.05667 | -118.83051 | 16031 ft | 224 kts | 288° |
| 2026-04-18 04:42 | 34.06144 | -118.84832 | 16038 ft | 223 kts | 288° |
| 2026-04-18 04:42 | 34.06619 | -118.86610 | 16038 ft | 222 kts | 288° |
| 2026-04-18 04:43 | 34.07095 | -118.88388 | 16038 ft | 223 kts | 288° |
| 2026-04-18 04:43 | 34.07570 | -118.90166 | 16050 ft | 223 kts | 288° |
| 2026-04-18 04:43 | 34.08046 | -118.91949 | 16051 ft | 224 kts | 288° |
| 2026-04-18 04:43 | 34.08521 | -118.93731 | 16051 ft | 223 kts | 288° |
| 2026-04-18 04:44 | 34.08998 | -118.95514 | 16028 ft | 225 kts | 288° |
| 2026-04-18 04:44 | 34.09478 | -118.97314 | 16009 ft | 226 kts | 288° |
| 2026-04-18 04:44 | 34.09957 | -118.99118 | 16006 ft | 226 kts | 288° |
| 2026-04-18 04:44 | 34.10438 | -119.00928 | 16008 ft | 226 kts | 288° |
| 2026-04-18 04:45 | 34.10919 | -119.02735 | 16013 ft | 226 kts | 288° |
| 2026-04-18 04:45 | 34.11407 | -119.04539 | 16014 ft | 226 kts | 290° |
| 2026-04-18 04:45 | 34.12182 | -119.06180 | 16013 ft | 226 kts | 304° |
| 2026-04-18 04:45 | 34.13064 | -119.07755 | 16021 ft | 226 kts | 303° |
| 2026-04-18 04:46 | 34.13920 | -119.09317 | 16019 ft | 226 kts | 303° |
| 2026-04-18 04:46 | 34.14788 | -119.10897 | 16021 ft | 226 kts | 303° |
| 2026-04-18 04:46 | 34.15659 | -119.12476 | 16022 ft | 226 kts | 303° |
| 2026-04-18 04:46 | 34.16529 | -119.14054 | 16015 ft | 226 kts | 303° |
| 2026-04-18 04:47 | 34.17401 | -119.15636 | 16010 ft | 226 kts | 303° |
| 2026-04-18 04:47 | 34.18270 | -119.17215 | 16010 ft | 226 kts | 303° |
| 2026-04-18 04:47 | 34.19140 | -119.18797 | 16013 ft | 226 kts | 303° |
| 2026-04-18 04:47 | 34.20009 | -119.20376 | 16007 ft | 226 kts | 303° |
| 2026-04-18 04:48 | 34.20872 | -119.21946 | 16009 ft | 226 kts | 303° |
| 2026-04-18 04:48 | 34.21744 | -119.23533 | 16009 ft | 226 kts | 303° |
| 2026-04-18 04:48 | 34.22612 | -119.25114 | 16012 ft | 226 kts | 303° |
| 2026-04-18 04:48 | 34.23480 | -119.26697 | 16013 ft | 225 kts | 303° |
| 2026-04-18 04:49 | 34.24350 | -119.28281 | 16009 ft | 226 kts | 303° |
| 2026-04-18 04:49 | 34.25219 | -119.29863 | 16008 ft | 226 kts | 303° |
| 2026-04-18 04:49 | 34.26077 | -119.31429 | 16007 ft | 226 kts | 303° |
| 2026-04-18 04:49 | 34.26948 | -119.33018 | 16007 ft | 226 kts | 303° |
| 2026-04-18 04:50 | 34.27817 | -119.34603 | 16007 ft | 226 kts | 303° |
| 2026-04-18 04:50 | 34.28688 | -119.36194 | 16006 ft | 226 kts | 303° |
| 2026-04-18 04:50 | 34.29558 | -119.37784 | 16003 ft | 226 kts | 303° |
| 2026-04-18 04:50 | 34.30419 | -119.39357 | 16003 ft | 226 kts | 303° |
| 2026-04-18 04:51 | 34.31290 | -119.40949 | 16001 ft | 226 kts | 303° |
| 2026-04-18 04:51 | 34.32158 | -119.42537 | 15998 ft | 226 kts | 303° |
| 2026-04-18 04:51 | 34.33029 | -119.44133 | 16005 ft | 226 kts | 303° |
| 2026-04-18 04:51 | 34.33897 | -119.45721 | 16002 ft | 226 kts | 303° |
| 2026-04-18 04:52 | 34.34767 | -119.47314 | 16003 ft | 226 kts | 303° |
| 2026-04-18 04:52 | 34.35634 | -119.48904 | 15996 ft | 226 kts | 303° |
| 2026-04-18 04:52 | 34.36492 | -119.50477 | 15991 ft | 226 kts | 303° |
| 2026-04-18 04:52 | 34.37359 | -119.52068 | 15989 ft | 226 kts | 303° |
| 2026-04-18 04:53 | 34.38226 | -119.53659 | 15990 ft | 226 kts | 303° |
| 2026-04-18 04:53 | 34.39094 | -119.55251 | 15999 ft | 227 kts | 303° |
| 2026-04-18 04:53 | 34.39960 | -119.56842 | 15999 ft | 226 kts | 303° |
| 2026-04-18 04:53 | 34.40826 | -119.58434 | 15996 ft | 226 kts | 303° |
| 2026-04-18 04:54 | 34.41691 | -119.60023 | 15994 ft | 225 kts | 303° |
| 2026-04-18 04:54 | 34.42552 | -119.61607 | 15994 ft | 225 kts | 303° |
| 2026-04-18 04:54 | 34.43402 | -119.63171 | 15993 ft | 225 kts | 303° |
| 2026-04-18 04:54 | 34.44263 | -119.64756 | 15992 ft | 225 kts | 303° |
| 2026-04-18 04:55 | 34.45125 | -119.66343 | 15993 ft | 226 kts | 303° |
| 2026-04-18 04:55 | 34.45987 | -119.67932 | 16002 ft | 225 kts | 303° |
| 2026-04-18 04:55 | 34.46570 | -119.69006 | 16000 ft | 226 kts | 303° |
| 2026-04-18 04:56 | 34.48281 | -119.72161 | 15993 ft | 224 kts | 303° |
| 2026-04-18 04:56 | 34.49138 | -119.73743 | 15993 ft | 225 kts | 303° |
| 2026-04-18 04:56 | 34.49996 | -119.75328 | 15995 ft | 225 kts | 303° |
| 2026-04-18 04:56 | 34.50775 | -119.76979 | 15999 ft | 225 kts | 290° |
| 2026-04-18 04:57 | 34.51082 | -119.78841 | 16002 ft | 225 kts | 275° |
| 2026-04-18 04:57 | 34.51203 | -119.80711 | 16003 ft | 226 kts | 275° |
| 2026-04-18 04:57 | 34.51334 | -119.82608 | 16005 ft | 226 kts | 275° |
| 2026-04-18 04:57 | 34.51466 | -119.84513 | 16001 ft | 226 kts | 275° |
| 2026-04-18 04:58 | 34.51597 | -119.86413 | 16026 ft | 225 kts | 275° |
| 2026-04-18 04:58 | 34.51727 | -119.88307 | 16026 ft | 225 kts | 275° |
| 2026-04-18 04:58 | 34.51856 | -119.90200 | 16024 ft | 225 kts | 275° |
| 2026-04-18 04:58 | 34.51985 | -119.92099 | 16023 ft | 226 kts | 275° |
| 2026-04-18 04:59 | 34.52115 | -119.94001 | 16025 ft | 226 kts | 275° |
| 2026-04-18 04:59 | 34.52244 | -119.95897 | 16028 ft | 226 kts | 275° |
| 2026-04-18 04:59 | 34.52372 | -119.97798 | 16029 ft | 225 kts | 275° |
| 2026-04-18 04:59 | 34.52499 | -119.99666 | 16030 ft | 225 kts | 275° |
| 2026-04-18 05:00 | 34.52628 | -120.01580 | 16083 ft | 225 kts | 275° |
| 2026-04-18 05:00 | 34.52753 | -120.03445 | 16082 ft | 224 kts | 275° |
| 2026-04-18 05:00 | 34.52880 | -120.05329 | 16082 ft | 224 kts | 275° |
| 2026-04-18 05:00 | 34.53184 | -120.07179 | 16081 ft | 224 kts | 292° |
| 2026-04-18 05:01 | 34.53984 | -120.08790 | 16084 ft | 224 kts | 310° |
| 2026-04-18 05:01 | 34.55187 | -120.09995 | 16093 ft | 226 kts | 329° |
| 2026-04-18 05:01 | 34.56637 | -120.10734 | 16096 ft | 227 kts | 338° |
| 2026-04-18 05:01 | 34.58098 | -120.11404 | 16097 ft | 227 kts | 338° |
| 2026-04-18 05:02 | 34.59572 | -120.12090 | 16099 ft | 227 kts | 338° |
| 2026-04-18 05:02 | 34.61051 | -120.12776 | 16099 ft | 227 kts | 338° |
| 2026-04-18 05:02 | 34.62528 | -120.13461 | 16100 ft | 227 kts | 338° |
| 2026-04-18 05:02 | 34.64008 | -120.14147 | 16101 ft | 227 kts | 338° |
| 2026-04-18 05:03 | 34.65485 | -120.14833 | 16100 ft | 227 kts | 338° |
| 2026-04-18 05:03 | 34.66963 | -120.15519 | 16106 ft | 227 kts | 338° |
| 2026-04-18 05:03 | 34.68444 | -120.16207 | 16100 ft | 227 kts | 338° |
| 2026-04-18 05:03 | 34.69923 | -120.16894 | 16098 ft | 228 kts | 338° |
| 2026-04-18 05:04 | 34.71402 | -120.17582 | 16097 ft | 228 kts | 338° |
| 2026-04-18 05:04 | 34.72881 | -120.18269 | 16095 ft | 228 kts | 338° |
| 2026-04-18 05:04 | 34.74345 | -120.18951 | 16093 ft | 228 kts | 338° |
| 2026-04-18 05:04 | 34.75829 | -120.19641 | 16092 ft | 228 kts | 338° |
| 2026-04-18 05:05 | 34.77306 | -120.20329 | 16091 ft | 228 kts | 338° |
| 2026-04-18 05:05 | 34.78793 | -120.21021 | 16090 ft | 228 kts | 338° |
| 2026-04-18 05:05 | 34.80272 | -120.21711 | 16094 ft | 228 kts | 338° |
| 2026-04-18 05:05 | 34.81753 | -120.22400 | 16096 ft | 228 kts | 338° |
| 2026-04-18 05:06 | 34.83234 | -120.23091 | 16098 ft | 228 kts | 338° |
| 2026-04-18 05:06 | 34.84719 | -120.23784 | 16100 ft | 228 kts | 338° |
| 2026-04-18 05:06 | 34.86201 | -120.24475 | 16100 ft | 228 kts | 338° |
| 2026-04-18 05:06 | 34.87666 | -120.25160 | 16104 ft | 228 kts | 338° |
| 2026-04-18 05:07 | 34.89148 | -120.25851 | 16108 ft | 228 kts | 338° |
| 2026-04-18 05:07 | 34.90633 | -120.26545 | 16108 ft | 228 kts | 338° |
| 2026-04-18 05:07 | 34.92114 | -120.27238 | 16110 ft | 228 kts | 338° |
| 2026-04-18 05:07 | 34.93599 | -120.27932 | 16111 ft | 228 kts | 338° |
| 2026-04-18 05:08 | 34.95084 | -120.28626 | 16111 ft | 228 kts | 338° |
| 2026-04-18 05:08 | 34.96567 | -120.29320 | 16111 ft | 228 kts | 338° |
| 2026-04-18 05:08 | 34.98037 | -120.30008 | 16112 ft | 228 kts | 338° |
| 2026-04-18 05:08 | 34.99518 | -120.30702 | 16112 ft | 228 kts | 338° |
| 2026-04-18 05:09 | 35.01004 | -120.31398 | 16111 ft | 228 kts | 338° |
| 2026-04-18 05:09 | 35.02490 | -120.32094 | 16111 ft | 228 kts | 338° |
| 2026-04-18 05:09 | 35.03976 | -120.32791 | 16111 ft | 228 kts | 338° |
| 2026-04-18 05:09 | 35.05460 | -120.33487 | 16109 ft | 228 kts | 338° |
| 2026-04-18 05:10 | 35.06945 | -120.34184 | 16113 ft | 228 kts | 338° |
| 2026-04-18 05:10 | 35.08411 | -120.34871 | 16110 ft | 228 kts | 338° |
| 2026-04-18 05:10 | 35.09892 | -120.35567 | 16109 ft | 228 kts | 338° |
| 2026-04-18 05:10 | 35.11371 | -120.36261 | 16107 ft | 227 kts | 338° |
| 2026-04-18 05:11 | 35.12848 | -120.36956 | 16108 ft | 227 kts | 338° |
| 2026-04-18 05:11 | 35.14328 | -120.37652 | 16107 ft | 227 kts | 338° |
| 2026-04-18 05:11 | 35.15805 | -120.38346 | 16104 ft | 227 kts | 338° |
| 2026-04-18 05:11 | 35.17288 | -120.39044 | 16105 ft | 227 kts | 338° |
| 2026-04-18 05:12 | 35.18746 | -120.39730 | 16104 ft | 228 kts | 338° |
| 2026-04-18 05:12 | 35.20228 | -120.40428 | 16104 ft | 228 kts | 338° |
| 2026-04-18 05:12 | 35.21707 | -120.41124 | 16106 ft | 228 kts | 338° |
| 2026-04-18 05:12 | 35.23185 | -120.41821 | 16104 ft | 228 kts | 338° |
| 2026-04-18 05:13 | 35.24667 | -120.42519 | 16105 ft | 228 kts | 338° |
| 2026-04-18 05:13 | 35.26145 | -120.43216 | 16106 ft | 228 kts | 338° |
| 2026-04-18 05:13 | 35.27625 | -120.43915 | 16108 ft | 228 kts | 338° |
| 2026-04-18 05:13 | 35.29106 | -120.44614 | 16108 ft | 228 kts | 338° |
| 2026-04-18 05:14 | 35.30583 | -120.45311 | 16108 ft | 227 kts | 338° |
| 2026-04-18 05:14 | 35.32060 | -120.46008 | 16108 ft | 227 kts | 338° |
| 2026-04-18 05:14 | 35.33523 | -120.46700 | 16108 ft | 227 kts | 338° |
| 2026-04-18 05:14 | 35.34998 | -120.47397 | 16108 ft | 227 kts | 338° |
| 2026-04-18 05:15 | 35.36478 | -120.48096 | 16108 ft | 227 kts | 338° |
| 2026-04-18 05:15 | 35.37957 | -120.48796 | 16108 ft | 227 kts | 338° |
| 2026-04-18 05:15 | 35.39433 | -120.49495 | 16108 ft | 227 kts | 338° |
| 2026-04-18 05:15 | 35.40909 | -120.50194 | 16108 ft | 227 kts | 338° |
| 2026-04-18 05:16 | 35.42385 | -120.50893 | 16106 ft | 228 kts | 338° |
| 2026-04-18 05:16 | 35.43861 | -120.51592 | 16100 ft | 227 kts | 338° |
| 2026-04-18 05:16 | 35.45319 | -120.52283 | 16099 ft | 227 kts | 338° |
| 2026-04-18 05:16 | 35.46796 | -120.52983 | 16125 ft | 227 kts | 338° |
| 2026-04-18 05:17 | 35.48268 | -120.53681 | 16126 ft | 227 kts | 338° |
| 2026-04-18 05:17 | 35.49739 | -120.54380 | 16129 ft | 227 kts | 338° |
| 2026-04-18 05:17 | 35.51210 | -120.55078 | 16132 ft | 227 kts | 338° |
| 2026-04-18 05:17 | 35.52680 | -120.55776 | 16134 ft | 227 kts | 338° |
| 2026-04-18 05:18 | 35.54150 | -120.56475 | 16138 ft | 227 kts | 338° |
| 2026-04-18 05:18 | 35.55620 | -120.57174 | 16141 ft | 227 kts | 338° |
| 2026-04-18 05:18 | 35.57094 | -120.57874 | 16143 ft | 227 kts | 338° |
| 2026-04-18 05:18 | 35.58551 | -120.58567 | 16145 ft | 227 kts | 338° |
| 2026-04-18 05:19 | 35.60041 | -120.59276 | 16147 ft | 227 kts | 338° |
| 2026-04-18 05:19 | 35.61495 | -120.59968 | 16145 ft | 227 kts | 338° |
| 2026-04-18 05:19 | 35.62966 | -120.60669 | 16146 ft | 227 kts | 338° |
| 2026-04-18 05:19 | 35.64437 | -120.61370 | 16146 ft | 227 kts | 338° |
| 2026-04-18 05:20 | 35.65912 | -120.62073 | 16145 ft | 227 kts | 338° |
| 2026-04-18 05:20 | 35.67375 | -120.62792 | 16143 ft | 226 kts | 333° |
| 2026-04-18 05:20 | 35.68761 | -120.63715 | 16144 ft | 225 kts | 330° |
| 2026-04-18 05:20 | 35.70132 | -120.64650 | 16143 ft | 225 kts | 330° |
| 2026-04-18 05:21 | 35.71507 | -120.65575 | 16146 ft | 225 kts | 330° |
| 2026-04-18 05:21 | 35.72869 | -120.66488 | 16146 ft | 225 kts | 330° |
| 2026-04-18 05:21 | 35.74245 | -120.67413 | 16143 ft | 225 kts | 330° |
| 2026-04-18 05:21 | 35.75624 | -120.68341 | 16145 ft | 225 kts | 330° |
| 2026-04-18 05:22 | 35.77003 | -120.69269 | 16142 ft | 226 kts | 330° |
| 2026-04-18 05:22 | 35.78383 | -120.70199 | 16140 ft | 226 kts | 330° |
| 2026-04-18 05:22 | 35.79759 | -120.71126 | 16139 ft | 225 kts | 330° |
| 2026-04-18 05:22 | 35.81121 | -120.72045 | 16137 ft | 226 kts | 330° |
| 2026-04-18 05:23 | 35.82501 | -120.72975 | 16133 ft | 226 kts | 330° |
| 2026-04-18 05:23 | 35.83878 | -120.73904 | 16133 ft | 226 kts | 330° |
| 2026-04-18 05:23 | 35.85256 | -120.74835 | 16129 ft | 226 kts | 330° |
| 2026-04-18 05:23 | 35.86637 | -120.75766 | 16113 ft | 226 kts | 330° |
| 2026-04-18 05:24 | 35.88012 | -120.76696 | 16110 ft | 225 kts | 330° |
| 2026-04-18 05:24 | 35.89391 | -120.77627 | 16112 ft | 225 kts | 330° |
| 2026-04-18 05:24 | 35.90766 | -120.78557 | 16113 ft | 225 kts | 330° |
| 2026-04-18 05:24 | 35.92139 | -120.79486 | 16111 ft | 225 kts | 330° |
| 2026-04-18 05:25 | 35.93498 | -120.80405 | 16112 ft | 225 kts | 330° |
| 2026-04-18 05:25 | 35.94874 | -120.81337 | 16109 ft | 225 kts | 330° |
| 2026-04-18 05:25 | 35.96247 | -120.82266 | 16112 ft | 225 kts | 330° |
| 2026-04-18 05:25 | 35.97621 | -120.83196 | 16112 ft | 225 kts | 330° |
| 2026-04-18 05:26 | 35.98995 | -120.84127 | 16109 ft | 225 kts | 330° |
| 2026-04-18 05:26 | 36.00369 | -120.85059 | 16114 ft | 225 kts | 330° |
| 2026-04-18 05:26 | 36.01744 | -120.85991 | 16118 ft | 225 kts | 330° |
| 2026-04-18 05:26 | 36.03118 | -120.86924 | 16120 ft | 225 kts | 330° |
| 2026-04-18 05:27 | 36.04489 | -120.87854 | 16120 ft | 225 kts | 330° |
| 2026-04-18 05:27 | 36.05843 | -120.88773 | 16121 ft | 225 kts | 330° |
| 2026-04-18 05:27 | 36.07213 | -120.89704 | 16121 ft | 225 kts | 330° |
| 2026-04-18 05:27 | 36.08582 | -120.90634 | 16120 ft | 225 kts | 330° |
| 2026-04-18 05:28 | 36.09951 | -120.91565 | 16123 ft | 225 kts | 330° |
| 2026-04-18 05:28 | 36.11320 | -120.92496 | 16123 ft | 225 kts | 330° |
| 2026-04-18 05:28 | 36.12691 | -120.93428 | 16119 ft | 225 kts | 330° |
| 2026-04-18 05:28 | 36.14063 | -120.94362 | 16123 ft | 225 kts | 330° |
| 2026-04-18 05:29 | 36.15432 | -120.95295 | 16117 ft | 225 kts | 330° |
| 2026-04-18 05:29 | 36.16806 | -120.96230 | 16119 ft | 225 kts | 330° |
| 2026-04-18 05:29 | 36.18181 | -120.97168 | 16122 ft | 225 kts | 330° |
| 2026-04-18 05:29 | 36.19538 | -120.98093 | 16120 ft | 226 kts | 330° |
| 2026-04-18 05:30 | 36.20918 | -120.99033 | 16119 ft | 226 kts | 330° |
| 2026-04-18 05:30 | 36.22294 | -120.99973 | 16121 ft | 226 kts | 330° |
| 2026-04-18 05:30 | 36.23673 | -121.00914 | 16122 ft | 226 kts | 330° |
| 2026-04-18 05:30 | 36.25048 | -121.01853 | 16123 ft | 226 kts | 330° |
| 2026-04-18 05:31 | 36.26428 | -121.02795 | 16124 ft | 226 kts | 330° |
| 2026-04-18 05:31 | 36.27804 | -121.03735 | 16124 ft | 226 kts | 330° |
| 2026-04-18 05:31 | 36.29182 | -121.04677 | 16119 ft | 225 kts | 330° |
| 2026-04-18 05:31 | 36.30540 | -121.05606 | 16122 ft | 226 kts | 330° |
| 2026-04-18 05:32 | 36.31914 | -121.06546 | 16119 ft | 226 kts | 330° |
| 2026-04-18 05:32 | 36.33288 | -121.07487 | 16117 ft | 226 kts | 330° |
| 2026-04-18 05:32 | 36.34659 | -121.08426 | 16125 ft | 226 kts | 330° |
| 2026-04-18 05:32 | 36.36040 | -121.09372 | 16124 ft | 226 kts | 330° |
| 2026-04-18 05:33 | 36.37416 | -121.10314 | 16127 ft | 226 kts | 330° |
| 2026-04-18 05:33 | 36.38795 | -121.11260 | 16066 ft | 228 kts | 330° |
| 2026-04-18 05:33 | 36.40187 | -121.12215 | 16052 ft | 228 kts | 330° |
| 2026-04-18 05:33 | 36.41567 | -121.13162 | 16052 ft | 227 kts | 330° |
| 2026-04-18 05:34 | 36.42949 | -121.14110 | 16051 ft | 226 kts | 330° |
| 2026-04-18 05:34 | 36.44327 | -121.15057 | 16051 ft | 226 kts | 330° |
| 2026-04-18 05:34 | 36.45690 | -121.15993 | 16050 ft | 226 kts | 330° |
| 2026-04-18 05:34 | 36.47066 | -121.16939 | 16049 ft | 226 kts | 330° |
| 2026-04-18 05:35 | 36.48443 | -121.17885 | 16049 ft | 226 kts | 329° |
| 2026-04-18 05:35 | 36.49816 | -121.18830 | 16051 ft | 225 kts | 329° |
| 2026-04-18 05:35 | 36.51192 | -121.19775 | 16050 ft | 225 kts | 330° |
| 2026-04-18 05:35 | 36.52563 | -121.20714 | 16051 ft | 225 kts | 329° |
| 2026-04-18 05:36 | 36.53935 | -121.21662 | 16054 ft | 225 kts | 329° |
| 2026-04-18 05:36 | 36.55303 | -121.22607 | 16054 ft | 225 kts | 329° |
| 2026-04-18 05:36 | 36.56657 | -121.23541 | 16053 ft | 225 kts | 329° |
| 2026-04-18 05:36 | 36.58026 | -121.24485 | 16050 ft | 225 kts | 329° |
| 2026-04-18 05:37 | 36.59395 | -121.25429 | 16046 ft | 225 kts | 330° |
| 2026-04-18 05:37 | 36.60766 | -121.26376 | 16047 ft | 225 kts | 330° |
| 2026-04-18 05:37 | 36.62136 | -121.27322 | 16046 ft | 225 kts | 330° |
| 2026-04-18 05:37 | 36.63509 | -121.28270 | 16045 ft | 225 kts | 330° |
| 2026-04-18 05:38 | 36.64878 | -121.29215 | 16046 ft | 225 kts | 330° |
| 2026-04-18 05:38 | 36.66247 | -121.30163 | 16050 ft | 225 kts | 329° |
| 2026-04-18 05:38 | 36.67617 | -121.31109 | 16053 ft | 225 kts | 329° |
| 2026-04-18 05:38 | 36.68987 | -121.32057 | 16051 ft | 225 kts | 329° |
| 2026-04-18 05:39 | 36.70363 | -121.33009 | 16034 ft | 226 kts | 329° |
| 2026-04-18 05:39 | 36.71737 | -121.33961 | 16034 ft | 226 kts | 329° |
| 2026-04-18 05:39 | 36.73110 | -121.34912 | 16032 ft | 226 kts | 329° |
| 2026-04-18 05:39 | 36.74469 | -121.35853 | 16032 ft | 225 kts | 329° |
| 2026-04-18 05:40 | 36.75838 | -121.36803 | 16032 ft | 225 kts | 329° |
| 2026-04-18 05:40 | 36.77206 | -121.37753 | 16032 ft | 225 kts | 329° |
| 2026-04-18 05:40 | 36.78576 | -121.38704 | 16033 ft | 225 kts | 329° |
| 2026-04-18 05:40 | 36.79949 | -121.39655 | 15900 ft | 227 kts | 329° |
| 2026-04-18 05:41 | 36.81332 | -121.40615 | 15505 ft | 234 kts | 330° |
| 2026-04-18 05:41 | 36.82772 | -121.41614 | 15033 ft | 238 kts | 330° |
| 2026-04-18 05:41 | 36.84223 | -121.42623 | 14566 ft | 239 kts | 330° |
| 2026-04-18 05:41 | 36.85670 | -121.43628 | 14101 ft | 234 kts | 330° |
| 2026-04-18 05:42 | 36.87072 | -121.44604 | 13609 ft | 231 kts | 330° |
| 2026-04-18 05:42 | 36.88472 | -121.45578 | 13093 ft | 229 kts | 330° |
| 2026-04-18 05:42 | 36.89860 | -121.46544 | 12584 ft | 228 kts | 330° |
| 2026-04-18 05:42 | 36.91243 | -121.47507 | 12082 ft | 227 kts | 330° |
| 2026-04-18 05:43 | 36.92158 | -121.48145 | 11756 ft | 226 kts | 331° |
| 2026-04-18 05:43 | 36.93527 | -121.49099 | 11270 ft | 225 kts | 331° |
| 2026-04-18 05:43 | 36.94889 | -121.50049 | 10791 ft | 223 kts | 331° |
| 2026-04-18 05:43 | 36.96243 | -121.50993 | 10319 ft | 222 kts | 331° |
| 2026-04-18 05:44 | 36.97589 | -121.51933 | 9828 ft | 221 kts | 331° |
| 2026-04-18 05:44 | 36.98931 | -121.52868 | 9312 ft | 219 kts | 331° |
| 2026-04-18 05:44 | 37.00259 | -121.53796 | 8802 ft | 218 kts | 330° |
| 2026-04-18 05:44 | 37.01582 | -121.54720 | 8299 ft | 217 kts | 330° |
| 2026-04-18 05:45 | 37.02879 | -121.55627 | 7811 ft | 215 kts | 330° |
| 2026-04-18 05:45 | 37.04186 | -121.56540 | 7323 ft | 214 kts | 330° |
| 2026-04-18 05:45 | 37.05437 | -121.57544 | 6839 ft | 213 kts | 324° |
| 2026-04-18 05:45 | 37.06645 | -121.58615 | 6355 ft | 212 kts | 324° |
| 2026-04-18 05:46 | 37.07849 | -121.59668 | 6013 ft | 205 kts | 324° |
| 2026-04-18 05:46 | 37.08974 | -121.60648 | 6006 ft | 190 kts | 324° |
| 2026-04-18 05:46 | 37.10043 | -121.61557 | 6005 ft | 182 kts | 327° |
| 2026-04-18 05:46 | 37.11101 | -121.62366 | 6007 ft | 178 kts | 328° |
| 2026-04-18 05:47 | 37.12163 | -121.63153 | 5995 ft | 177 kts | 329° |
| 2026-04-18 05:47 | 37.13249 | -121.63955 | 5770 ft | 186 kts | 329° |
| 2026-04-18 05:47 | 37.14379 | -121.64794 | 5527 ft | 190 kts | 329° |
| 2026-04-18 05:47 | 37.15522 | -121.65647 | 5289 ft | 191 kts | 329° |
| 2026-04-18 05:48 | 37.16687 | -121.66520 | 5015 ft | 199 kts | 329° |
| 2026-04-18 05:48 | 37.17868 | -121.67482 | 4651 ft | 205 kts | 325° |
| 2026-04-18 05:48 | 37.19051 | -121.68514 | 4278 ft | 208 kts | 325° |
| 2026-04-18 05:48 | 37.20235 | -121.69557 | 3909 ft | 208 kts | 325° |
| 2026-04-18 05:49 | 37.21399 | -121.70608 | 3544 ft | 202 kts | 324° |
| 2026-04-18 05:49 | 37.22496 | -121.71618 | 3295 ft | 188 kts | 323° |
| 2026-04-18 05:49 | 37.23512 | -121.72585 | 3022 ft | 179 kts | 322° |
| 2026-04-18 05:49 | 37.24456 | -121.73490 | 2759 ft | 164 kts | 323° |
| 2026-04-18 05:50 | 37.25322 | -121.74330 | 2433 ft | 154 kts | 322° |
| 2026-04-18 05:50 | 37.26150 | -121.75157 | 2167 ft | 149 kts | 321° |
| 2026-04-18 05:50 | 37.26961 | -121.75945 | 1922 ft | 143 kts | 323° |
| 2026-04-18 05:50 | 37.27711 | -121.76660 | 1718 ft | 128 kts | 323° |
| 2026-04-18 05:51 | 37.28389 | -121.77288 | 1553 ft | 118 kts | 324° |
| 2026-04-18 05:51 | 37.29044 | -121.77896 | 1338 ft | 114 kts | 322° |
| 2026-04-18 05:51 | 37.29646 | -121.78485 | 1160 ft | 106 kts | 321° |
| 2026-04-18 05:51 | 37.30231 | -121.79040 | 961 ft | 107 kts | 324° |
| 2026-04-18 05:52 | 37.30850 | -121.79601 | 820 ft | 111 kts | 322° |
| 2026-04-18 05:52 | 37.31446 | -121.80184 | 660 ft | 108 kts | 322° |
| 2026-04-18 05:52 | 37.32035 | -121.80733 | 477 ft | 103 kts | 323° |
| 2026-04-18 05:52 | 37.32590 | -121.81259 | 300 ft | 96 kts | 323° |
| 2026-04-18 05:53 | 37.33108 | -121.81747 | 160 ft | 90 kts | 323° |
| 2026-04-18 05:53 | 37.33513 | -121.82127 | 159 ft | 45 kts | 325° |
| 2026-04-18 05:53 | 37.33640 | -121.82240 | 158 ft | 5 kts | 358° |
| 2026-04-18 05:53 | 37.33671 | -121.82203 | 157 ft | 5 kts | 52° |
| 2026-04-18 05:54 | 37.33672 | -121.82201 | 157 ft | 0 kts | 52° |
| 2026-04-18 05:55 | 37.33676 | -121.82194 | 159 ft | 4 kts | 62° |
| 2026-04-18 05:55 | 37.33663 | -121.82154 | 159 ft | 6 kts | 143° |
| 2026-04-18 05:55 | 37.33623 | -121.82118 | 159 ft | 9 kts | 143° |
| 2026-04-18 05:55 | 37.33589 | -121.82083 | 158 ft | 1 kts | 138° |
| 2026-04-18 05:56 | 37.33583 | -121.82077 | 158 ft | 2 kts | 142° |
| 2026-04-18 05:56 | 37.33573 | -121.82067 | 157 ft | 2 kts | 135° |
| 2026-04-18 05:56 | 37.33567 | -121.82053 | 157 ft | 0 kts | 82° |
| 2026-04-18 05:56 | 37.33572 | -121.82047 | 157 ft | 0 kts | 34° |
| 2026-04-18 05:57 | 37.33578 | -121.82039 | 158 ft | 0 kts | 53° |
| 2026-04-18 05:57 | 37.33578 | -121.82038 | 158 ft | 0 kts | 53° |